Time;durP1;ratioP1;P1;durP2;ratioP2;P2;SDS_P1;SDS_P2;PMS_P1;PMS_P2;Temp;Humidity;BMP_temperature;BMP_pressure;BME280_temperature;BME280_humidity;BME280_pressure;Samples;Min_cycle;Max_cycle;Signal;HPM_P1;HPM_P2
2022/09/24 00:00:56;;;;;;;25.50;19.13;;;13.90;98.20;;;;;;5041220;28;20858;-72
2022/09/24 00:03:24;;;;;;;26.57;19.40;;;13.90;98.20;;;;;;5055274;28;20044;-72
2022/09/24 00:05:51;;;;;;;27.27;19.93;;;13.80;98.30;;;;;;5066861;28;20362;-72
2022/09/24 00:08:18;;;;;;;28.97;21.00;;;13.80;98.60;;;;;;5048427;28;20280;-73
2022/09/24 00:10:46;;;;;;;30.23;22.27;;;13.80;99.00;;;;;;5070571;28;20463;-73
2022/09/24 00:13:15;;;;;;;30.27;22.47;;;13.70;99.00;;;;;;5067869;28;20288;-73
2022/09/24 00:15:44;;;;;;;32.07;23.30;;;13.70;99.30;;;;;;5068674;28;20283;-73
2022/09/24 00:18:11;;;;;;;32.07;23.30;;;13.70;99.60;;;;;;5067187;28;20376;-73
2022/09/24 00:20:38;;;;;;;33.23;24.80;;;13.60;99.90;;;;;;5061903;28;20282;-73
2022/09/24 00:23:04;;;;;;;41.60;28.97;;;13.60;99.90;;;;;;5046925;28;20721;-73
2022/09/24 00:28:15;;;;;;;40.87;29.73;;;13.60;99.90;;;;;;5061408;28;20799;-73
2022/09/24 00:30:42;;;;;;;42.27;29.27;;;13.60;99.90;;;;;;5049892;28;20283;-73
2022/09/24 00:33:09;;;;;;;38.37;29.37;;;13.60;99.90;;;;;;5050454;28;20374;-73
2022/09/24 00:35:36;;;;;;;36.73;25.60;;;13.50;99.90;;;;;;5033592;28;20704;-73
2022/09/24 00:38:04;;;;;;;42.23;27.47;;;13.60;99.90;;;;;;5049032;28;20298;-73
2022/09/24 00:40:32;;;;;;;37.70;26.67;;;13.60;99.90;;;;;;5054311;28;20416;-73
2022/09/24 00:42:58;;;;;;;41.57;28.07;;;13.60;99.90;;;;;;5048905;28;20279;-73
2022/09/24 00:45:26;;;;;;;44.47;28.90;;;13.60;99.90;;;;;;5063766;28;20417;-73
2022/09/24 00:47:53;;;;;;;41.27;28.63;;;13.60;99.90;;;;;;5058284;28;20294;-73
2022/09/24 00:50:23;;;;;;;39.13;25.30;;;13.60;99.90;;;;;;5049935;28;20374;-74
2022/09/24 00:52:57;;;;;;;36.50;25.27;;;13.60;99.90;;;;;;5067875;28;20802;-73
2022/09/24 00:55:23;;;;;;;44.00;26.63;;;13.60;99.90;;;;;;5066647;28;20632;-73
2022/09/24 00:57:57;;;;;;;46.73;29.30;;;13.70;99.90;;;;;;5065205;28;20289;-73
2022/09/24 01:00:24;;;;;;;45.03;28.77;;;13.70;99.90;;;;;;5055382;28;20289;-73
2022/09/24 01:02:55;;;;;;;44.87;27.80;;;13.70;99.90;;;;;;5036228;28;20282;-73
2022/09/24 01:05:21;;;;;;;46.73;29.03;;;13.70;99.90;;;;;;5068805;28;20289;-73
2022/09/24 01:07:47;;;;;;;45.80;28.50;;;13.70;99.90;;;;;;5066001;28;20631;-73
2022/09/24 01:10:46;;;;;;;41.47;26.43;;;13.70;99.90;;;;;;5039805;28;20301;-73
2022/09/24 01:13:15;;;;;;;45.03;27.97;;;13.70;99.90;;;;;;5063006;28;20604;-73
2022/09/24 01:15:59;;;;;;;46.20;28.47;;;13.70;99.90;;;;;;5065951;28;20279;-73
2022/09/24 01:18:56;;;;;;;46.77;28.37;;;13.70;99.90;;;;;;5061896;28;20841;-73
2022/09/24 01:21:34;;;;;;;49.13;28.90;;;13.70;99.90;;;;;;5052913;28;20267;-73
2022/09/24 01:24:23;;;;;;;47.93;29.00;;;13.70;99.90;;;;;;5072976;28;20616;-72
2022/09/24 01:27:04;;;;;;;45.37;27.33;;;13.70;99.90;;;;;;5065026;28;20294;-73
2022/09/24 01:29:52;;;;;;;51.17;30.00;;;13.80;99.90;;;;;;5043446;28;20282;-73
2022/09/24 01:32:36;;;;;;;51.47;30.10;;;13.80;99.90;;;;;;5042497;28;20312;-73
2022/09/24 01:35:15;;;;;;;52.15;31.40;;;13.80;99.90;;;;;;5060736;28;20275;-73
2022/09/24 01:37:46;;;;;;;57.50;32.23;;;13.80;99.90;;;;;;5057442;28;20515;-73
2022/09/24 01:40:12;;;;;;;55.53;32.83;;;13.70;99.90;;;;;;5049153;28;20285;-73
2022/09/24 01:42:42;;;;;;;59.90;34.37;;;13.70;99.90;;;;;;5048547;28;20314;-73
2022/09/24 01:45:09;;;;;;;59.57;33.13;;;13.70;99.90;;;;;;5049491;28;20298;-73
2022/09/24 01:47:38;;;;;;;54.13;32.30;;;13.70;99.90;;;;;;5047435;28;20291;-73
2022/09/24 01:50:09;;;;;;;62.77;32.57;;;13.70;99.90;;;;;;5045076;28;21249;-73
2022/09/24 01:52:59;;;;;;;52.60;32.10;;;13.70;99.90;;;;;;5048353;28;20299;-73
2022/09/24 01:55:28;;;;;;;57.80;31.37;;;13.70;99.90;;;;;;5053056;28;20344;-73
2022/09/24 01:58:00;;;;;;;57.90;31.47;;;13.70;99.90;;;;;;5064164;28;20290;-73
2022/09/24 02:00:26;;;;;;;50.50;28.93;;;13.70;99.90;;;;;;5052784;28;20651;-72
2022/09/24 02:03:10;;;;;;;53.80;27.40;;;13.60;99.90;;;;;;5079047;28;20428;-73
2022/09/24 02:05:41;;;;;;;47.13;26.70;;;13.60;99.90;;;;;;5061694;28;20045;-73
2022/09/24 02:08:07;;;;;;;51.10;26.20;;;13.60;99.90;;;;;;5044392;28;20287;-72
2022/09/24 02:10:41;;;;;;;48.73;26.40;;;13.50;99.90;;;;;;5048073;28;20761;-72
2022/09/24 02:13:12;;;;;;;44.47;25.63;;;13.50;99.90;;;;;;5049497;28;20076;-72
2022/09/24 02:15:41;;;;;;;50.37;26.37;;;13.50;99.90;;;;;;5050095;28;20282;-72
2022/09/24 02:18:10;;;;;;;51.67;28.27;;;13.50;99.90;;;;;;5047208;28;20329;-72
2022/09/24 02:20:40;;;;;;;54.93;28.73;;;13.50;99.90;;;;;;5064785;28;20275;-73
2022/09/24 02:23:09;;;;;;;35.30;20.80;;;13.50;99.90;;;;;;5082070;28;20271;-73
2022/09/24 02:25:47;;;;;;;44.40;21.77;;;13.50;99.90;;;;;;5064703;28;20303;-71
2022/09/24 02:28:13;;;;;;;31.87;16.70;;;13.50;99.90;;;;;;5069178;28;20289;-71
2022/09/24 02:30:57;;;;;;;24.43;13.40;;;13.50;99.90;;;;;;5047927;28;20630;-71
2022/09/24 02:36:10;;;;;;;20.23;8.87;;;13.60;99.90;;;;;;5069411;28;20289;-71
2022/09/24 02:38:36;;;;;;;17.43;9.63;;;13.60;99.90;;;;;;5047868;28;20279;-71
2022/09/24 02:41:03;;;;;;;24.03;11.47;;;13.60;99.90;;;;;;5061628;28;20311;-71
2022/09/24 02:43:29;;;;;;;24.33;11.20;;;13.60;99.90;;;;;;5048272;28;20170;-71
2022/09/24 02:45:55;;;;;;;19.83;10.80;;;13.60;99.90;;;;;;5047605;28;20370;-71
2022/09/24 02:48:20;;;;;;;29.33;13.00;;;13.50;99.90;;;;;;5047895;28;20378;-71
2022/09/24 02:50:46;;;;;;;30.00;13.60;;;13.50;99.90;;;;;;5052655;28;20588;-71
2022/09/24 02:53:12;;;;;;;26.90;14.10;;;13.50;99.90;;;;;;5062942;28;20048;-71
2022/09/24 02:55:38;;;;;;;31.77;13.73;;;13.50;99.90;;;;;;5032896;28;20037;-70
2022/09/24 02:58:03;;;;;;;34.77;16.27;;;13.50;99.90;;;;;;5061310;28;20040;-70
2022/09/24 03:00:29;;;;;;;34.43;17.77;;;13.50;99.90;;;;;;5046134;28;20072;-70
2022/09/24 03:02:54;;;;;;;38.03;19.00;;;13.50;99.90;;;;;;5050712;28;20044;-70
2022/09/24 03:05:20;;;;;;;42.87;20.23;;;13.50;99.90;;;;;;5028498;28;20049;-72
2022/09/24 03:07:46;;;;;;;47.10;19.93;;;13.50;99.90;;;;;;5047827;28;20053;-73
2022/09/24 03:10:12;;;;;;;44.67;21.17;;;13.50;99.90;;;;;;5069745;28;20444;-73
2022/09/24 03:12:38;;;;;;;45.17;21.80;;;13.50;99.90;;;;;;5053896;28;20106;-73
2022/09/24 03:15:04;;;;;;;49.90;21.33;;;13.50;99.90;;;;;;5053159;28;20041;-73
2022/09/24 03:17:29;;;;;;;44.33;21.27;;;13.50;99.90;;;;;;5051166;28;20036;-73
2022/09/24 03:19:55;;;;;;;35.80;18.70;;;13.50;99.90;;;;;;5053454;28;20282;-73
2022/09/24 03:22:21;;;;;;;46.67;20.53;;;13.40;99.90;;;;;;5051943;28;20135;-73
2022/09/24 03:24:46;;;;;;;33.77;18.13;;;13.40;99.90;;;;;;5067706;28;20140;-73
2022/09/24 03:27:12;;;;;;;31.37;15.93;;;13.40;99.90;;;;;;5068021;28;20056;-73
2022/09/24 03:32:22;;;;;;;29.63;14.30;;;13.40;99.90;;;;;;5041955;28;20420;-73
2022/09/24 03:34:48;;;;;;;38.37;15.97;;;13.40;99.90;;;;;;5028883;28;20287;-73
2022/09/24 03:37:13;;;;;;;30.73;13.13;;;13.30;99.90;;;;;;5037511;28;20032;-73
2022/09/24 03:39:39;;;;;;;30.93;13.80;;;13.30;99.90;;;;;;5050913;28;20052;-72
2022/09/24 03:42:05;;;;;;;30.83;12.53;;;13.30;99.90;;;;;;5050822;28;20055;-72
2022/09/24 03:44:30;;;;;;;22.87;11.53;;;13.30;99.90;;;;;;5038497;28;20340;-72
2022/09/24 03:46:56;;;;;;;25.47;10.33;;;13.30;99.90;;;;;;5067380;28;20500;-73
2022/09/24 03:49:22;;;;;;;20.23;7.67;;;13.30;99.90;;;;;;5070175;28;20048;-73
2022/09/24 03:51:49;;;;;;;18.37;7.43;;;13.30;99.90;;;;;;5050767;28;20036;-73
2022/09/24 03:54:15;;;;;;;22.67;7.17;;;13.30;99.90;;;;;;5054555;28;20293;-73
2022/09/24 03:56:41;;;;;;;14.87;4.57;;;13.30;99.90;;;;;;5037955;28;20282;-73
2022/09/24 03:59:09;;;;;;;10.33;3.80;;;13.30;99.90;;;;;;5066418;28;20286;-73
2022/09/24 04:01:36;;;;;;;16.40;4.00;;;13.30;99.90;;;;;;5067437;28;20855;-70
2022/09/24 04:04:03;;;;;;;11.47;2.73;;;13.20;99.90;;;;;;5058199;28;20291;-70
2022/09/24 04:06:29;;;;;;;12.07;2.33;;;13.20;99.90;;;;;;5066856;28;20358;-70
2022/09/24 04:08:55;;;;;;;10.90;2.00;;;13.20;99.90;;;;;;5070161;28;20283;-70
2022/09/24 04:11:22;;;;;;;8.77;2.37;;;13.20;99.90;;;;;;5071001;28;20821;-70
2022/09/24 04:13:48;;;;;;;9.73;1.43;;;13.20;99.90;;;;;;5071060;28;20174;-70
2022/09/24 04:16:14;;;;;;;8.00;1.90;;;13.10;99.90;;;;;;5066554;28;20385;-70
2022/09/24 04:18:40;;;;;;;7.53;1.40;;;13.10;99.90;;;;;;5049663;28;20489;-70
2022/09/24 04:21:06;;;;;;;12.87;1.80;;;13.10;99.90;;;;;;5037925;28;20355;-70
2022/09/24 04:23:32;;;;;;;11.20;2.30;;;13.00;99.90;;;;;;5054725;28;20492;-70
2022/09/24 04:26:01;;;;;;;10.57;1.87;;;13.00;99.90;;;;;;5070812;28;20092;-70
2022/09/24 04:28:28;;;;;;;12.90;1.60;;;13.00;99.90;;;;;;5049782;28;20040;-70
2022/09/24 04:30:54;;;;;;;12.70;1.83;;;13.00;99.90;;;;;;5035099;28;20662;-70
2022/09/24 04:33:20;;;;;;;13.70;1.70;;;12.90;99.90;;;;;;5053001;28;20279;-70
2022/09/24 04:35:46;;;;;;;21.73;2.67;;;12.90;99.90;;;;;;5048194;28;20111;-70
2022/09/24 04:38:12;;;;;;;15.33;2.57;;;12.90;99.90;;;;;;5066537;28;20583;-69
2022/09/24 04:40:38;;;;;;;11.70;1.60;;;12.90;99.90;;;;;;5065719;28;20358;-70
2022/09/24 04:43:05;;;;;;;7.63;1.43;;;12.80;99.90;;;;;;5066225;28;20301;-70
2022/09/24 04:45:31;;;;;;;10.47;1.57;;;12.80;99.90;;;;;;5056397;28;20287;-70
2022/09/24 04:47:57;;;;;;;9.13;1.20;;;12.70;99.90;;;;;;5065281;28;20298;-70
2022/09/24 04:50:25;;;;;;;11.80;1.63;;;12.70;99.90;;;;;;5048815;28;20298;-70
2022/09/24 04:52:51;;;;;;;12.57;1.43;;;12.70;99.90;;;;;;5065959;28;20111;-70
2022/09/24 04:55:19;;;;;;;11.33;1.30;;;12.60;99.90;;;;;;5066002;28;20412;-70
2022/09/24 04:57:45;;;;;;;11.70;2.00;;;12.60;99.90;;;;;;5065886;28;20508;-70
2022/09/24 05:00:14;;;;;;;9.80;1.60;;;12.60;99.90;;;;;;5049684;28;20283;-70
2022/09/24 05:02:41;;;;;;;8.87;1.27;;;12.50;99.90;;;;;;5030577;28;20786;-69
2022/09/24 05:05:07;;;;;;;6.30;1.10;;;12.50;99.90;;;;;;5082102;28;20320;-69
2022/09/24 05:07:33;;;;;;;9.47;1.73;;;12.50;99.90;;;;;;5066746;28;20361;-70
2022/09/24 05:09:59;;;;;;;9.47;1.43;;;12.40;99.90;;;;;;5054646;28;20455;-70
2022/09/24 05:12:25;;;;;;;8.63;1.57;;;12.40;99.90;;;;;;5054803;28;20131;-72
2022/09/24 05:14:50;;;;;;;10.90;1.97;;;12.40;99.90;;;;;;5064119;28;20493;-72
2022/09/24 05:17:16;;;;;;;8.47;1.50;;;12.40;99.90;;;;;;5050817;28;20033;-72
2022/09/24 05:19:42;;;;;;;8.93;1.53;;;12.30;99.90;;;;;;5071412;28;20043;-72
2022/09/24 05:22:07;;;;;;;12.40;1.80;;;12.30;99.90;;;;;;5072222;28;20316;-72
2022/09/24 05:24:33;;;;;;;10.17;1.40;;;12.30;99.90;;;;;;5065144;28;20544;-72
2022/09/24 05:27:08;;;;;;;11.10;1.60;;;12.20;99.90;;;;;;5052138;28;20066;-72
2022/09/24 05:29:42;;;;;;;8.03;1.63;;;12.20;99.90;;;;;;5069470;28;20175;-73
2022/09/24 05:32:16;;;;;;;7.27;1.90;;;12.20;99.90;;;;;;5060583;28;20044;-72
2022/09/24 05:34:43;;;;;;;9.93;1.50;;;12.10;99.90;;;;;;5065582;28;20294;-72
2022/09/24 05:37:09;;;;;;;10.07;1.77;;;12.10;99.90;;;;;;5064794;28;20278;-72
2022/09/24 05:39:35;;;;;;;7.97;1.67;;;12.10;99.90;;;;;;5051586;28;20278;-72
2022/09/24 05:42:03;;;;;;;12.20;1.83;;;12.10;99.90;;;;;;5031888;28;21142;-72
2022/09/24 05:44:32;;;;;;;10.30;1.60;;;12.10;99.90;;;;;;5046158;28;20052;-72
2022/09/24 05:46:58;;;;;;;10.33;1.63;;;12.10;99.90;;;;;;5062862;28;20815;-72
2022/09/24 05:49:24;;;;;;;8.63;2.00;;;12.00;99.90;;;;;;5061507;28;20290;-72
2022/09/24 05:51:50;;;;;;;11.70;1.87;;;12.00;99.90;;;;;;5046225;28;20672;-72
2022/09/24 05:54:17;;;;;;;7.63;1.47;;;12.00;99.90;;;;;;5051224;28;20463;-72
2022/09/24 05:56:43;;;;;;;8.83;1.67;;;12.00;99.90;;;;;;5038767;28;20072;-72
2022/09/24 05:59:09;;;;;;;9.53;1.27;;;12.00;99.90;;;;;;5064555;28;20620;-72
2022/09/24 06:01:35;;;;;;;9.63;1.33;;;12.00;99.90;;;;;;5052490;28;20052;-72
2022/09/24 06:04:00;;;;;;;12.47;1.67;;;12.10;99.90;;;;;;5064668;28;20046;-72
2022/09/24 06:06:27;;;;;;;9.67;1.57;;;12.10;99.90;;;;;;5031631;28;20287;-72
2022/09/24 06:08:53;;;;;;;12.50;1.60;;;12.10;99.90;;;;;;5031326;28;20048;-73
2022/09/24 06:11:21;;;;;;;13.33;1.40;;;12.10;99.90;;;;;;5068304;28;20302;-72
2022/09/24 06:13:47;;;;;;;16.80;1.70;;;12.10;99.90;;;;;;5065412;28;20358;-72
2022/09/24 06:16:13;;;;;;;11.47;1.93;;;12.10;99.90;;;;;;5051402;28;20315;-72
2022/09/24 06:18:40;;;;;;;6.67;1.63;;;12.10;99.90;;;;;;5060608;28;20709;-72
2022/09/24 06:21:11;;;;;;;14.13;1.90;;;12.10;99.90;;;;;;5036817;28;20141;-72
2022/09/24 06:23:38;;;;;;;9.37;1.50;;;12.20;99.90;;;;;;5050780;28;20299;-73
2022/09/24 06:26:06;;;;;;;11.93;2.33;;;12.20;99.90;;;;;;5047521;28;20310;-72
2022/09/24 06:28:33;;;;;;;12.90;1.40;;;12.20;99.90;;;;;;5043900;28;20283;-72
2022/09/24 06:31:00;;;;;;;10.17;1.80;;;12.20;99.90;;;;;;5060845;28;20282;-73
2022/09/24 06:33:26;;;;;;;10.83;1.50;;;12.20;99.90;;;;;;5049424;28;20279;-72
2022/09/24 06:35:52;;;;;;;14.53;1.90;;;12.20;99.90;;;;;;5048327;28;20311;-73
2022/09/24 06:38:18;;;;;;;13.10;1.67;;;12.30;99.90;;;;;;5069321;28;20317;-73
2022/09/24 06:40:47;;;;;;;10.00;1.93;;;12.30;99.90;;;;;;5078391;28;20037;-72
2022/09/24 06:43:14;;;;;;;11.73;2.17;;;12.30;99.90;;;;;;5062103;28;20286;-72
2022/09/24 06:45:41;;;;;;;6.07;1.67;;;12.30;99.90;;;;;;5059050;28;20286;-72
2022/09/24 06:48:10;;;;;;;13.50;2.43;;;12.40;99.90;;;;;;5069728;28;20290;-72
2022/09/24 06:50:42;;;;;;;15.03;2.23;;;12.40;99.90;;;;;;5035775;28;20289;-72
2022/09/24 06:53:09;;;;;;;10.77;1.77;;;12.50;99.90;;;;;;5044302;28;20674;-72
2022/09/24 06:55:35;;;;;;;11.50;1.67;;;12.50;99.90;;;;;;5068320;28;20283;-73
2022/09/24 06:58:14;;;;;;;14.23;1.90;;;12.50;99.90;;;;;;5069737;28;20799;-73
2022/09/24 07:00:41;;;;;;;10.33;2.00;;;12.60;99.90;;;;;;5069152;28;20283;-73
2022/09/24 07:03:15;;;;;;;7.70;2.03;;;12.60;99.90;;;;;;5091857;28;20647;-72
2022/09/24 07:05:41;;;;;;;12.27;2.80;;;12.60;99.90;;;;;;5075595;28;20271;-72
2022/09/24 07:08:07;;;;;;;14.90;2.17;;;12.70;99.90;;;;;;5042530;28;20283;-73
2022/09/24 07:10:33;;;;;;;15.30;2.00;;;12.70;99.90;;;;;;5071931;28;20286;-73
2022/09/24 07:12:59;;;;;;;8.93;1.83;;;12.70;99.90;;;;;;5089259;28;20055;-72
2022/09/24 07:15:24;;;;;;;10.43;1.50;;;12.80;99.90;;;;;;5072024;28;20810;-73
2022/09/24 07:17:56;;;;;;;13.00;1.73;;;12.80;99.90;;;;;;5052153;28;20073;-72
2022/09/24 07:20:23;;;;;;;10.77;1.40;;;12.90;99.90;;;;;;5051791;28;20055;-72
2022/09/24 07:22:49;;;;;;;10.33;1.90;;;12.90;99.90;;;;;;5088363;28;20313;-72
2022/09/24 07:25:15;;;;;;;10.03;1.10;;;12.90;99.90;;;;;;5066304;28;20295;-72
2022/09/24 07:27:40;;;;;;;11.63;1.13;;;12.90;99.90;;;;;;5069849;28;20165;-73
2022/09/24 07:30:08;;;;;;;12.80;1.27;;;12.90;99.90;;;;;;5054002;28;20040;-72
2022/09/24 07:32:34;;;;;;;13.20;1.70;;;13.00;99.90;;;;;;5051909;28;20056;-73
2022/09/24 07:35:00;;;;;;;11.97;1.93;;;13.00;99.90;;;;;;5056369;28;20278;-72
2022/09/24 07:37:26;;;;;;;8.97;1.17;;;13.00;99.90;;;;;;5055282;28;20684;-73
2022/09/24 07:39:51;;;;;;;7.33;1.77;;;13.10;99.90;;;;;;5073098;28;20595;-73
2022/09/24 07:42:17;;;;;;;9.17;2.03;;;13.10;99.90;;;;;;5055897;28;20504;-72
2022/09/24 07:44:43;;;;;;;8.83;1.20;;;13.10;99.90;;;;;;5055304;28;20404;-73
2022/09/24 07:47:09;;;;;;;11.47;1.73;;;13.20;99.90;;;;;;5035346;28;20045;-72
2022/09/24 07:49:35;;;;;;;6.00;1.10;;;13.20;99.90;;;;;;5068363;28;20048;-72
2022/09/24 07:52:01;;;;;;;7.37;1.07;;;13.20;99.90;;;;;;5051904;28;20306;-73
2022/09/24 07:54:28;;;;;;;9.10;1.70;;;13.30;99.90;;;;;;5056199;28;20279;-72
2022/09/24 07:56:54;;;;;;;13.07;1.70;;;13.40;99.90;;;;;;5058106;28;20036;-72
2022/09/24 07:59:20;;;;;;;8.70;1.10;;;13.40;99.90;;;;;;5037158;28;20647;-72
2022/09/24 08:01:46;;;;;;;8.93;1.10;;;13.40;99.90;;;;;;5058917;28;20556;-72
2022/09/24 08:04:11;;;;;;;11.23;1.57;;;13.40;99.90;;;;;;5059503;28;20102;-72
2022/09/24 08:06:37;;;;;;;7.37;1.50;;;13.40;99.90;;;;;;5056152;28;20044;-71
2022/09/24 08:09:03;;;;;;;10.63;1.63;;;13.40;99.90;;;;;;5066677;28;20532;-71
2022/09/24 08:11:29;;;;;;;10.07;1.80;;;13.30;99.90;;;;;;5072520;28;20459;-72
2022/09/24 08:13:56;;;;;;;10.90;1.43;;;13.30;99.90;;;;;;5051396;28;20290;-73
2022/09/24 08:16:23;;;;;;;9.47;1.30;;;13.30;99.90;;;;;;5049558;28;20760;-73
2022/09/24 08:18:49;;;;;;;10.33;2.03;;;13.30;99.90;;;;;;5067633;28;20305;-73
2022/09/24 08:21:15;;;;;;;8.20;1.37;;;13.30;99.90;;;;;;5071892;28;20791;-73
2022/09/24 08:23:42;;;;;;;13.73;1.30;;;13.30;99.90;;;;;;5061741;28;20036;-72
2022/09/24 08:26:11;;;;;;;10.43;1.67;;;13.30;99.90;;;;;;5046922;28;20301;-73
2022/09/24 08:28:40;;;;;;;9.63;1.23;;;13.30;99.90;;;;;;5070469;28;20424;-72
2022/09/24 08:31:09;;;;;;;10.90;1.70;;;13.40;99.90;;;;;;5048320;28;21155;-72
2022/09/24 08:33:36;;;;;;;6.83;1.10;;;13.40;99.90;;;;;;5071310;28;20282;-72
2022/09/24 08:36:05;;;;;;;10.77;1.47;;;13.40;99.90;;;;;;5067792;28;20358;-72
2022/09/24 08:38:30;;;;;;;14.63;2.03;;;13.40;99.90;;;;;;5058259;28;20287;-73
2022/09/24 08:41:05;;;;;;;13.27;2.20;;;13.50;99.90;;;;;;5048758;28;20306;-73
2022/09/24 08:44:03;;;;;;;8.95;1.25;;;13.50;99.90;;;;;;5046865;28;20044;-72
2022/09/24 08:49:24;;;;;;;10.03;1.20;;;13.50;99.90;;;;;;5065069;28;20275;-73
2022/09/24 08:52:02;;;;;;;9.50;1.10;;;13.60;99.90;;;;;;5065311;28;20310;-72
2022/09/24 08:54:32;;;;;;;8.13;1.23;;;13.80;99.90;;;;;;5065515;28;20283;-73
2022/09/24 08:57:01;;;;;;;6.53;1.13;;;13.80;99.90;;;;;;5049009;28;20283;-72
2022/09/24 08:59:31;;;;;;;9.30;1.00;;;13.90;99.90;;;;;;5063595;28;20263;-72
2022/09/24 09:02:22;;;;;;;9.07;1.50;;;14.00;99.90;;;;;;5064289;28;20274;-72
2022/09/24 09:04:53;;;;;;;8.33;1.10;;;14.10;99.90;;;;;;5047005;28;20306;-72
2022/09/24 09:07:37;;;;;;;8.43;1.30;;;14.10;99.90;;;;;;5063619;28;20369;-72
2022/09/24 09:10:16;;;;;;;12.03;1.30;;;14.20;99.90;;;;;;5063272;28;20296;-72
2022/09/24 09:12:47;;;;;;;10.97;1.17;;;14.20;99.90;;;;;;5047476;28;20310;-72
2022/09/24 09:15:24;;;;;;;6.80;0.70;;;14.20;99.90;;;;;;5064558;28;20282;-73
2022/09/24 09:17:58;;;;;;;8.47;0.80;;;14.30;99.90;;;;;;5064635;28;20821;-72
2022/09/24 09:20:32;;;;;;;7.20;1.17;;;14.40;99.90;;;;;;5064369;28;20319;-72
2022/09/24 09:23:04;;;;;;;9.90;1.27;;;14.40;99.90;;;;;;5053729;28;20290;-72
2022/09/24 09:25:35;;;;;;;6.93;0.80;;;14.30;99.90;;;;;;5049904;28;20310;-72
2022/09/24 09:28:13;;;;;;;9.13;1.20;;;14.30;99.90;;;;;;5062836;28;20330;-72
2022/09/24 09:30:58;;;;;;;6.67;0.90;;;14.30;99.90;;;;;;5042062;28;20634;-73
2022/09/24 09:34:15;;;;;;;8.20;1.53;;;14.20;99.90;;;;;;5063585;28;20806;-72
2022/09/24 09:36:59;;;;;;;6.57;1.33;;;14.30;99.30;;;;;;4986854;28;20301;-72
2022/09/24 09:39:36;;;;;;;10.40;1.70;;;14.40;98.80;;;;;;4992881;28;20525;-72
2022/09/24 09:42:34;;;;;;;8.60;0.93;;;14.50;97.50;;;;;;5044533;28;20629;-72
2022/09/24 09:45:39;;;;;;;5.93;0.90;;;14.60;97.50;;;;;;5041628;28;20334;-73
2022/09/24 09:48:07;;;;;;;6.90;0.97;;;14.70;93.50;;;;;;5059552;28;20783;-73
2022/09/24 09:50:38;;;;;;;8.93;1.33;;;14.70;95.10;;;;;;5069881;28;20287;-73
2022/09/24 09:53:04;;;;;;;9.93;1.23;;;14.70;95.80;;;;;;5042933;28;20298;-73
2022/09/24 09:55:37;;;;;;;6.27;0.50;;;14.70;95.00;;;;;;5067888;28;20317;-72
2022/09/24 09:58:14;;;;;;;5.30;0.90;;;14.70;94.90;;;;;;5047623;28;20301;-72
2022/09/24 10:00:41;;;;;;;5.83;0.87;;;14.70;94.10;;;;;;5066811;28;20279;-72
2022/09/24 10:03:46;;;;;;;8.23;0.90;;;14.70;94.20;;;;;;5066108;28;20301;-73
2022/09/24 10:06:27;;;;;;;9.00;0.80;;;14.80;94.60;;;;;;5022035;28;20340;-73
2022/09/24 10:09:04;;;;;;;7.43;0.80;;;14.80;93.10;;;;;;5047211;28;20040;-73
2022/09/24 10:11:30;;;;;;;10.63;0.90;;;14.80;92.80;;;;;;5043071;28;20413;-72
2022/09/24 10:14:04;;;;;;;8.57;0.90;;;14.90;92.70;;;;;;5030580;28;20854;-72
2022/09/24 10:16:34;;;;;;;7.53;1.03;;;15.00;92.60;;;;;;5064781;28;20053;-72
2022/09/24 10:19:00;;;;;;;7.57;0.80;;;15.00;92.80;;;;;;5032314;28;20358;-73
2022/09/24 10:21:34;;;;;;;5.43;0.97;;;15.10;92.00;;;;;;5064287;28;20370;-73
2022/09/24 10:24:10;;;;;;;6.25;1.15;;;15.10;91.60;;;;;;5047789;28;20051;-73
2022/09/24 10:26:41;;;;;;;9.10;1.67;;;15.10;92.10;;;;;;5063989;28;20066;-73
2022/09/24 10:32:24;;;;;;;5.57;0.93;;;15.20;90.30;;;;;;5064931;28;20841;-73
2022/09/24 10:34:58;;;;;;;11.43;0.80;;;15.10;89.70;;;;;;5057451;28;20267;-73
2022/09/24 10:37:24;;;;;;;8.83;1.00;;;15.10;90.50;;;;;;5059970;28;20689;-73
2022/09/24 10:39:58;;;;;;;6.63;0.77;;;15.10;90.20;;;;;;5064470;28;20763;-73
2022/09/24 10:42:26;;;;;;;8.00;1.10;;;15.10;91.20;;;;;;5031731;28;20369;-73
2022/09/24 10:44:53;;;;;;;5.40;1.13;;;15.20;89.90;;;;;;5048459;28;20786;-73
2022/09/24 10:47:24;;;;;;;7.10;1.57;;;15.20;88.20;;;;;;5062883;28;20290;-73
2022/09/24 10:50:14;;;;;;;7.10;1.30;;;15.20;89.00;;;;;;5052935;28;20279;-73
2022/09/24 10:53:05;;;;;;;6.63;0.97;;;15.20;88.80;;;;;;5052302;28;20667;-73
2022/09/24 10:55:44;;;;;;;6.00;0.87;;;15.20;88.70;;;;;;5016289;28;20286;-73
2022/09/24 10:58:37;;;;;;;5.50;1.20;;;15.20;90.40;;;;;;5060052;28;20678;-73
2022/09/24 11:01:13;;;;;;;6.90;0.80;;;15.30;90.70;;;;;;5018996;28;20636;-73
2022/09/24 11:04:00;;;;;;;9.47;1.10;;;15.30;90.60;;;;;;5052408;28;20275;-70
2022/09/24 11:06:45;;;;;;;6.80;0.80;;;15.30;90.20;;;;;;5058976;28;20282;-70
2022/09/24 11:09:28;;;;;;;6.37;0.87;;;15.30;90.70;;;;;;5075158;28;21587;-70
2022/09/24 11:12:10;;;;;;;7.90;1.43;;;15.40;89.70;;;;;;5062834;28;20302;-70
2022/09/24 11:14:52;;;;;;;5.67;1.07;;;15.40;88.60;;;;;;5064515;28;20361;-70
2022/09/24 11:17:37;;;;;;;8.20;0.80;;;15.40;88.20;;;;;;5055737;28;20282;-71
2022/09/24 11:20:08;;;;;;;8.63;1.00;;;15.40;88.10;;;;;;5048245;28;20797;-71
2022/09/24 11:22:37;;;;;;;8.03;0.83;;;15.40;87.50;;;;;;5048363;28;20320;-70
2022/09/24 11:25:15;;;;;;;7.23;0.90;;;15.40;88.00;;;;;;5065888;28;20302;-73
2022/09/24 11:27:52;;;;;;;8.53;1.63;;;15.50;87.20;;;;;;5055588;28;20287;-72
2022/09/24 11:30:26;;;;;;;9.63;0.80;;;15.60;86.00;;;;;;5048867;28;20783;-72
2022/09/24 11:33:14;;;;;;;6.95;0.80;;;15.60;86.00;;;;;;5051259;28;20305;-72
2022/09/24 11:36:04;;;;;;;4.17;0.53;;;15.70;85.80;;;;;;5073311;28;20472;-72
2022/09/24 11:39:07;;;;;;;4.10;0.60;;;15.80;84.50;;;;;;5071198;28;20671;-72
2022/09/24 11:41:56;;;;;;;3.83;0.77;;;15.90;85.80;;;;;;5067743;28;20601;-73
2022/09/24 11:44:53;;;;;;;5.07;0.30;;;15.90;85.60;;;;;;5067314;28;20290;-73
2022/09/24 11:47:37;;;;;;;3.57;0.70;;;15.90;81.80;;;;;;5064872;28;20790;-73
2022/09/24 11:50:32;;;;;;;6.83;0.50;;;15.80;80.60;;;;;;5063671;28;20370;-73
2022/09/24 11:53:23;;;;;;;5.70;1.13;;;15.80;80.70;;;;;;5072434;28;20298;-73
2022/09/24 11:55:57;;;;;;;5.63;0.53;;;15.80;80.70;;;;;;5073985;28;20282;-72
2022/09/24 11:58:32;;;;;;;4.83;0.60;;;15.90;81.80;;;;;;5091350;28;20275;-73
2022/09/24 12:01:23;;;;;;;3.88;0.40;;;15.90;80.20;;;;;;5067916;28;21097;-73
2022/09/24 12:04:12;;;;;;;7.93;1.00;;;16.00;78.60;;;;;;5073794;28;20055;-73
2022/09/24 12:06:53;;;;;;;4.27;0.60;;;16.00;78.00;;;;;;5068740;28;20339;-72
2022/09/24 12:09:37;;;;;;;5.27;0.67;;;16.00;79.50;;;;;;5043145;28;20298;-72
2022/09/24 12:12:26;;;;;;;4.30;1.13;;;16.00;78.90;;;;;;5065964;28;20601;-73
2022/09/24 12:15:01;;;;;;;5.57;0.80;;;16.00;79.40;;;;;;5064009;28;20371;-72
2022/09/24 12:17:41;;;;;;;4.53;0.43;;;16.10;80.30;;;;;;5047606;28;20280;-72
2022/09/24 12:20:23;;;;;;;6.80;0.47;;;16.40;77.60;;;;;;5059762;28;20044;-74
2022/09/24 12:22:58;;;;;;;4.20;0.57;;;16.50;75.60;;;;;;5079442;28;20294;-72
2022/09/24 12:25:31;;;;;;;3.40;0.30;;;16.50;77.70;;;;;;5048220;28;20294;-72
2022/09/24 12:28:04;;;;;;;4.37;0.60;;;16.50;79.00;;;;;;5045190;28;20302;-73
2022/09/24 12:33:58;;;;;;;4.57;0.47;;;16.50;78.80;;;;;;5058479;28;20294;-73
2022/09/24 12:36:42;;;;;;;5.23;0.47;;;16.50;78.30;;;;;;5067506;28;20289;-73
2022/09/24 12:39:16;;;;;;;3.93;0.77;;;16.40;75.40;;;;;;5050010;28;20338;-72
2022/09/24 12:41:46;;;;;;;4.83;0.63;;;16.30;77.00;;;;;;5045514;28;20283;-72
2022/09/24 12:44:11;;;;;;;6.03;0.80;;;16.20;78.20;;;;;;5057500;28;20306;-73
2022/09/24 12:46:53;;;;;;;6.03;0.80;;;16.20;79.50;;;;;;5070031;28;20386;-73
2022/09/24 12:49:38;;;;;;;5.10;0.60;;;16.30;80.10;;;;;;5066167;28;20564;-73
2022/09/24 12:52:17;;;;;;;6.15;0.50;;;16.70;79.00;;;;;;5073869;28;20389;-73
2022/09/24 12:54:44;;;;;;;3.40;0.30;;;17.00;75.60;;;;;;5066634;28;20078;-73
2022/09/24 12:57:19;;;;;;;6.60;0.60;;;17.10;76.00;;;;;;5055885;28;20740;-73
2022/09/24 12:59:56;;;;;;;5.47;0.50;;;17.00;74.30;;;;;;5049456;28;20271;-74
2022/09/24 13:02:25;;;;;;;3.30;0.23;;;16.90;75.00;;;;;;5056481;28;20041;-72
2022/09/24 13:04:59;;;;;;;6.23;0.57;;;16.90;74.30;;;;;;5060755;28;20278;-72
2022/09/24 13:07:32;;;;;;;2.40;0.43;;;16.90;75.00;;;;;;5066249;28;20286;-72
2022/09/24 13:10:15;;;;;;;3.33;1.07;;;17.00;73.80;;;;;;5057306;28;20040;-72
2022/09/24 13:12:42;;;;;;;3.57;0.50;;;17.10;73.30;;;;;;5052230;28;20318;-72
2022/09/24 13:15:28;;;;;;;3.37;0.57;;;17.20;73.80;;;;;;5055340;28;20770;-73
2022/09/24 13:18:17;;;;;;;4.03;0.40;;;17.10;72.00;;;;;;5066598;28;20282;-73